createdAt,value
2022-08-30T00:01:36.493Z,24.80
2022-08-30T00:04:08.284Z,24.80
2022-08-30T00:06:35.740Z,24.80
2022-08-30T00:09:03.648Z,24.80
2022-08-30T00:11:31.722Z,24.80
2022-08-30T00:13:59.909Z,24.81
2022-08-30T00:16:27.707Z,24.81
2022-08-30T00:18:55.467Z,24.81
2022-08-30T00:21:23.602Z,24.80
2022-08-30T00:23:51.537Z,24.80
2022-08-30T00:26:19.733Z,24.79
2022-08-30T00:28:47.261Z,24.80
2022-08-30T00:31:15.596Z,24.80
2022-08-30T00:33:43.727Z,24.81
2022-08-30T00:36:11.212Z,24.80
2022-08-30T00:38:39.026Z,24.82
2022-08-30T00:41:06.950Z,24.80
2022-08-30T00:43:36.843Z,24.81
2022-08-30T00:46:08.267Z,24.80
2022-08-30T00:48:43.353Z,24.80
2022-08-30T00:51:14.165Z,24.80
2022-08-30T00:53:46.844Z,24.80
2022-08-30T00:56:16.096Z,24.80
2022-08-30T00:58:47.556Z,24.80
2022-08-30T01:01:15.363Z,24.80
2022-08-30T01:03:44.520Z,24.79
2022-08-30T01:06:15.581Z,24.79
2022-08-30T01:08:44.906Z,24.79
2022-08-30T01:11:15.005Z,24.78
2022-08-30T01:13:43.977Z,24.79
2022-08-30T01:16:11.515Z,24.78
2022-08-30T01:18:39.637Z,24.77
2022-08-30T01:21:08.330Z,24.78
2022-08-30T01:23:40.485Z,24.76
2022-08-30T01:26:08.540Z,24.77
2022-08-30T01:28:37.001Z,24.76
2022-08-30T01:31:05.154Z,24.77
2022-08-30T01:33:32.785Z,24.77
2022-08-30T01:36:04.402Z,24.75
2022-08-30T01:38:57.014Z,24.76
2022-08-30T01:41:31.204Z,24.75
2022-08-30T01:44:01.325Z,24.75
2022-08-30T01:46:36.150Z,24.75
2022-08-30T01:49:07.901Z,24.75
2022-08-30T01:51:36.708Z,24.75
2022-08-30T01:54:05.526Z,24.74
2022-08-30T01:56:32.997Z,24.74
2022-08-30T01:59:03.055Z,24.74
2022-08-30T02:01:33.347Z,24.74
2022-08-30T02:04:01.262Z,24.73
2022-08-30T02:06:29.071Z,24.73
2022-08-30T02:08:56.891Z,24.72
2022-08-30T02:11:24.552Z,24.73
2022-08-30T02:13:52.358Z,24.72
2022-08-30T02:16:24.575Z,24.72
2022-08-30T02:18:54.017Z,24.72
2022-08-30T02:21:21.890Z,24.72
2022-08-30T02:23:50.237Z,24.71
2022-08-30T02:26:19.305Z,24.72
2022-08-30T02:28:49.529Z,24.71
2022-08-30T02:31:20.796Z,24.70
2022-08-30T02:33:51.315Z,24.70
2022-08-30T02:36:20.752Z,24.70
2022-08-30T02:38:50.097Z,24.70
2022-08-30T02:41:18.854Z,24.70
2022-08-30T02:43:47.442Z,24.70
2022-08-30T02:46:15.176Z,24.69
2022-08-30T02:48:43.798Z,24.68
2022-08-30T02:51:13.480Z,24.68
2022-08-30T02:53:43.851Z,24.67
2022-08-30T02:56:12.902Z,24.67
2022-08-30T02:58:44.856Z,24.66
2022-08-30T03:01:15.127Z,24.67
2022-08-30T03:03:45.537Z,24.67
2022-08-30T03:06:14.153Z,24.66
2022-08-30T03:08:42.070Z,24.66
2022-08-30T03:11:10.116Z,24.66
2022-08-30T03:13:37.906Z,24.66
2022-08-30T03:16:05.467Z,24.67
2022-08-30T03:18:33.522Z,24.66
2022-08-30T03:21:01.346Z,24.64
2022-08-30T03:23:28.952Z,24.64
2022-08-30T03:25:57.377Z,24.64
2022-08-30T03:28:25.222Z,24.62
2022-08-30T03:30:52.747Z,24.63
2022-08-30T03:33:20.177Z,24.62
2022-08-30T03:35:49.756Z,24.61
2022-08-30T03:38:17.853Z,24.62
2022-08-30T03:40:45.330Z,24.61
2022-08-30T03:43:13.255Z,24.60
2022-08-30T03:45:41.496Z,24.60
2022-08-30T03:48:08.985Z,24.60
2022-08-30T03:50:36.978Z,24.59
2022-08-30T03:53:04.535Z,24.58
2022-08-30T03:55:32.053Z,24.59
2022-08-30T03:57:59.817Z,24.55
2022-08-30T04:00:27.294Z,24.52
2022-08-30T04:02:54.742Z,24.49
2022-08-30T04:05:22.454Z,24.47
2022-08-30T04:07:49.933Z,24.46
2022-08-30T04:10:17.652Z,24.45
2022-08-30T04:12:49.521Z,24.43
2022-08-30T04:15:18.769Z,24.42
2022-08-30T04:17:46.845Z,24.42
2022-08-30T04:20:14.986Z,24.42
2022-08-30T04:22:42.573Z,24.41
2022-08-30T04:25:14.183Z,24.41
2022-08-30T04:27:45.621Z,24.40
2022-08-30T04:30:15.619Z,24.39
2022-08-30T04:32:44.698Z,24.40
2022-08-30T04:35:13.664Z,24.39
2022-08-30T04:37:41.441Z,24.38
2022-08-30T04:40:10.455Z,24.38
2022-08-30T04:42:38.174Z,24.37
2022-08-30T04:45:09.998Z,24.38
2022-08-30T04:47:39.200Z,24.37
2022-08-30T04:50:08.560Z,24.38
2022-08-30T04:52:36.097Z,24.38
2022-08-30T04:55:04.827Z,24.38
2022-08-30T04:57:32.918Z,24.37
2022-08-30T05:00:00.481Z,24.37
2022-08-30T05:02:28.060Z,24.38
2022-08-30T05:05:14.281Z,24.37
2022-08-30T05:07:41.889Z,24.37
2022-08-30T05:10:11.529Z,24.39
2022-08-30T05:12:40.993Z,24.40
2022-08-30T05:15:09.544Z,24.41
2022-08-30T05:17:38.417Z,24.41
2022-08-30T05:20:11.354Z,24.42
2022-08-30T05:22:41.721Z,24.43
2022-08-30T05:25:09.412Z,24.43
2022-08-30T05:27:42.362Z,24.45
2022-08-30T05:30:10.794Z,24.46
2022-08-30T05:32:38.241Z,24.47
2022-08-30T05:35:08.277Z,24.49
2022-08-30T05:37:36.069Z,24.51
2022-08-30T05:40:10.944Z,24.52
2022-08-30T05:42:41.617Z,24.54
2022-08-30T05:45:10.156Z,24.55
2022-08-30T05:47:38.361Z,24.56
2022-08-30T05:50:08.361Z,24.58
2022-08-30T05:52:40.292Z,24.58
2022-08-30T05:55:09.579Z,24.59
2022-08-30T05:57:39.930Z,24.59
2022-08-30T06:00:11.727Z,24.61
2022-08-30T06:02:40.549Z,24.61
2022-08-30T06:05:10.025Z,24.61
2022-08-30T06:07:43.498Z,24.64
2022-08-30T06:10:12.352Z,24.64
2022-08-30T06:12:40.075Z,24.66
2022-08-30T06:15:08.344Z,24.66
2022-08-30T06:17:35.961Z,24.67
2022-08-30T06:20:04.281Z,24.69
2022-08-30T06:22:32.127Z,24.70
2022-08-30T06:24:59.550Z,24.71
2022-08-30T06:27:27.157Z,24.72
2022-08-30T06:29:54.867Z,24.71
2022-08-30T06:32:23.262Z,24.73
2022-08-30T06:34:50.889Z,24.71
2022-08-30T06:37:29.460Z,24.73
2022-08-30T06:39:58.127Z,24.72
2022-08-30T06:42:32.010Z,24.74
2022-08-30T06:45:01.136Z,24.73
2022-08-30T06:47:29.554Z,24.73
2022-08-30T06:49:58.134Z,24.69
2022-08-30T06:52:25.858Z,24.66
2022-08-30T06:54:58.918Z,24.64
2022-08-30T06:57:26.962Z,24.62
2022-08-30T06:59:57.463Z,24.61
2022-08-30T07:02:25.585Z,24.54
2022-08-30T07:04:53.755Z,24.55
2022-08-30T07:07:21.493Z,24.53
2022-08-30T07:09:48.925Z,24.52
2022-08-30T07:12:17.098Z,24.53
2022-08-30T07:14:44.909Z,24.52
2022-08-30T07:17:34.528Z,24.49
2022-08-30T07:20:05.250Z,24.39
2022-08-30T07:22:33.705Z,24.38
2022-08-30T07:25:01.610Z,24.39
2022-08-30T07:27:29.469Z,24.39
2022-08-30T07:29:58.712Z,24.36
2022-08-30T07:32:26.167Z,24.35
2022-08-30T07:34:53.968Z,24.36
2022-08-30T07:37:21.318Z,24.41
2022-08-30T07:39:48.805Z,24.43
2022-08-30T07:42:17.477Z,24.40
2022-08-30T07:44:44.948Z,24.40
2022-08-30T07:47:12.409Z,24.35
2022-08-30T07:49:40.785Z,24.30
2022-08-30T07:52:08.593Z,24.31
2022-08-30T07:54:36.203Z,24.24
2022-08-30T07:57:04.166Z,24.18
2022-08-30T07:59:34.195Z,24.17
2022-08-30T08:02:04.353Z,24.19
2022-08-30T08:04:33.173Z,24.25
2022-08-30T08:07:00.885Z,24.31
2022-08-30T08:09:28.369Z,24.28
2022-08-30T08:11:56.096Z,24.25
2022-08-30T08:14:23.768Z,24.26
2022-08-30T08:16:52.065Z,24.26
2022-08-30T08:19:20.644Z,24.25
2022-08-30T08:21:52.784Z,24.22
2022-08-30T08:24:27.580Z,24.26
2022-08-30T08:26:56.607Z,24.28
2022-08-30T08:29:24.094Z,24.18
2022-08-30T08:31:51.987Z,24.14
2022-08-30T08:34:23.289Z,24.09
2022-08-30T08:36:51.106Z,24.05
2022-08-30T08:39:18.781Z,24.11
2022-08-30T08:41:49.406Z,24.11
2022-08-30T08:47:25.845Z,24.26
2022-08-30T08:49:59.201Z,24.32
2022-08-30T08:53:02.697Z,24.29
2022-08-30T08:55:30.254Z,24.27
2022-08-30T08:57:58.214Z,24.28
2022-08-30T09:00:25.825Z,24.29
2022-08-30T09:03:01.722Z,24.35
2022-08-30T09:05:36.033Z,24.39
2022-08-30T09:08:11.400Z,24.31
2022-08-30T09:10:50.538Z,24.23
2022-08-30T09:13:23.066Z,24.19
2022-08-30T09:15:55.036Z,24.19
2022-08-30T09:18:51.251Z,24.14
2022-08-30T09:21:27.301Z,24.14
2022-08-30T09:23:59.156Z,24.14
2022-08-30T09:26:33.660Z,24.14
2022-08-30T09:29:01.271Z,24.20
2022-08-30T09:31:32.524Z,24.20
2022-08-30T09:34:03.967Z,24.09
2022-08-30T09:36:44.455Z,24.00
2022-08-30T09:39:33.510Z,23.91
2022-08-30T09:42:18.970Z,23.88
2022-08-30T09:44:46.741Z,23.83
2022-08-30T09:47:29.635Z,23.78
2022-08-30T09:50:12.225Z,23.77
2022-08-30T09:53:09.802Z,23.75
2022-08-30T09:55:43.365Z,23.76
2022-08-30T09:58:17.422Z,23.77
2022-08-30T10:01:15.057Z,23.86
2022-08-30T10:04:02.148Z,23.79
2022-08-30T10:06:49.982Z,23.73
2022-08-30T10:09:58.442Z,23.69
2022-08-30T10:13:00.625Z,23.76
2022-08-30T10:15:46.745Z,23.79
2022-08-30T10:18:23.609Z,23.77
2022-08-30T10:21:07.155Z,23.88
2022-08-30T10:24:04.668Z,23.88
2022-08-30T10:26:39.939Z,23.83
2022-08-30T10:29:14.719Z,23.76
2022-08-30T10:31:55.457Z,23.70
2022-08-30T10:34:39.906Z,23.62
2022-08-30T10:37:13.520Z,23.69
2022-08-30T10:40:21.599Z,23.81
2022-08-30T10:42:53.024Z,23.89
2022-08-30T10:45:22.130Z,23.91
2022-08-30T10:48:14.011Z,23.94
2022-08-30T10:50:45.735Z,23.92
2022-08-30T10:53:19.072Z,23.97
2022-08-30T10:56:05.424Z,24.02
2022-08-30T10:58:33.278Z,24.02
2022-08-30T11:01:28.623Z,24.00
2022-08-30T11:04:04.531Z,23.95
2022-08-30T11:06:45.819Z,23.90
2022-08-30T11:10:08.206Z,23.82
2022-08-30T11:12:49.630Z,23.86
2022-08-30T11:15:29.979Z,23.89
2022-08-30T11:18:09.421Z,23.86
2022-08-30T11:20:42.551Z,23.90
2022-08-30T11:23:19.396Z,23.96
2022-08-30T11:25:59.503Z,24.00
2022-08-30T11:28:35.919Z,24.04
2022-08-30T11:31:08.845Z,24.05
2022-08-30T11:33:42.085Z,24.07
2022-08-30T11:36:37.246Z,24.06
2022-08-30T11:39:11.885Z,24.00
2022-08-30T11:41:48.224Z,23.95
2022-08-30T11:44:22.007Z,23.90
2022-08-30T11:46:53.090Z,23.86
2022-08-30T11:49:46.127Z,23.85
2022-08-30T11:52:54.912Z,23.85
2022-08-30T11:55:38.132Z,23.83
2022-08-30T11:58:32.659Z,23.84
2022-08-30T12:01:55.041Z,23.90
2022-08-30T12:04:37.415Z,23.95
2022-08-30T12:07:08.903Z,23.98
2022-08-30T12:09:39.182Z,24.02
2022-08-30T12:12:10.266Z,24.08
2022-08-30T12:14:55.846Z,24.11
2022-08-30T12:18:04.721Z,24.10
2022-08-30T12:20:46.060Z,24.12
2022-08-30T12:23:38.207Z,24.14
2022-08-30T12:26:25.090Z,24.07
2022-08-30T12:29:10.814Z,24.02
2022-08-30T12:32:05.135Z,23.98
2022-08-30T12:34:50.598Z,23.95
2022-08-30T12:37:32.432Z,23.95
2022-08-30T12:40:14.478Z,23.94
2022-08-30T12:42:53.320Z,23.95
2022-08-30T12:45:25.815Z,24.00
2022-08-30T12:48:05.869Z,24.02
2022-08-30T12:50:48.851Z,24.04
2022-08-30T12:53:32.429Z,24.03
2022-08-30T12:56:12.179Z,24.00
2022-08-30T12:58:49.539Z,24.05
2022-08-30T13:01:32.383Z,24.12
2022-08-30T13:04:23.335Z,24.14
2022-08-30T13:06:57.706Z,24.15
2022-08-30T13:09:41.092Z,24.16
2022-08-30T13:12:25.151Z,24.21
2022-08-30T13:15:08.732Z,24.25
2022-08-30T13:17:36.157Z,24.22
2022-08-30T13:20:16.363Z,24.21
2022-08-30T13:23:05.702Z,24.27
2022-08-30T13:25:34.652Z,24.28
2022-08-30T13:28:03.261Z,24.30
2022-08-30T13:30:31.068Z,24.30
2022-08-30T13:33:01.318Z,24.28
2022-08-30T13:35:31.374Z,24.35
2022-08-30T13:38:01.877Z,24.41
2022-08-30T13:40:29.283Z,24.43
2022-08-30T13:42:57.298Z,24.45
2022-08-30T13:45:42.265Z,24.43
2022-08-30T13:48:11.385Z,24.41
2022-08-30T13:50:39.959Z,24.44
2022-08-30T13:53:09.325Z,24.47
2022-08-30T13:55:39.502Z,24.50
2022-08-30T13:58:08.625Z,24.52
2022-08-30T14:00:38.488Z,24.58
2022-08-30T14:03:06.172Z,24.55
2022-08-30T14:08:46.409Z,24.55
2022-08-30T14:11:21.116Z,24.52
2022-08-30T14:16:41.893Z,24.46
2022-08-30T14:19:11.471Z,24.42
2022-08-30T14:21:39.245Z,24.42
2022-08-30T14:24:06.909Z,24.46
2022-08-30T14:26:39.472Z,24.45
2022-08-30T14:29:10.214Z,24.45
2022-08-30T14:31:39.751Z,24.46
2022-08-30T14:34:11.391Z,24.44
2022-08-30T14:36:42.093Z,24.41
2022-08-30T14:39:14.446Z,24.40
2022-08-30T14:41:45.945Z,24.42
2022-08-30T14:44:15.134Z,24.43
2022-08-30T14:46:43.177Z,24.43
2022-08-30T14:49:12.603Z,24.38
2022-08-30T14:51:41.613Z,24.35
2022-08-30T14:54:09.607Z,24.31
2022-08-30T14:56:40.322Z,24.25
2022-08-30T14:59:08.440Z,24.22
2022-08-30T15:01:38.855Z,24.21
2022-08-30T15:04:09.307Z,24.22
2022-08-30T15:06:41.146Z,24.23
2022-08-30T15:09:11.716Z,24.23
2022-08-30T15:11:40.186Z,24.23
2022-08-30T15:14:07.675Z,24.21
2022-08-30T15:16:37.825Z,24.20
2022-08-30T15:19:09.236Z,24.21
2022-08-30T15:21:44.604Z,24.21
2022-08-30T15:24:16.247Z,24.22
2022-08-30T15:26:45.277Z,24.27
2022-08-30T15:29:17.617Z,24.29
2022-08-30T15:31:49.884Z,24.33
2022-08-30T15:34:20.018Z,24.38
2022-08-30T15:36:49.138Z,24.38
2022-08-30T15:39:18.813Z,24.39
2022-08-30T15:41:46.854Z,24.41
2022-08-30T15:44:23.635Z,24.43
2022-08-30T15:46:51.094Z,24.42
2022-08-30T15:49:23.140Z,24.43
2022-08-30T15:51:54.209Z,24.42
2022-08-30T15:54:24.024Z,24.42
2022-08-30T15:56:59.265Z,24.41
2022-08-30T15:59:31.541Z,24.40
2022-08-30T16:02:01.029Z,24.38
2022-08-30T16:04:29.423Z,24.36
2022-08-30T16:06:56.977Z,24.33
2022-08-30T16:09:26.433Z,24.28
2022-08-30T16:11:58.507Z,24.24
2022-08-30T16:14:27.580Z,24.25
2022-08-30T16:16:55.506Z,24.22
2022-08-30T16:19:23.441Z,24.20
2022-08-30T16:21:51.823Z,24.23
2022-08-30T16:24:22.333Z,24.25
2022-08-30T16:26:50.814Z,24.26
2022-08-30T16:29:18.282Z,24.26
2022-08-30T16:31:46.025Z,24.27
2022-08-30T16:34:17.751Z,24.24
2022-08-30T16:36:45.344Z,24.23
2022-08-30T16:39:14.526Z,24.22
2022-08-30T16:41:44.771Z,24.19
2022-08-30T16:44:13.888Z,24.17
2022-08-30T16:46:43.997Z,24.13
2022-08-30T16:49:23.062Z,24.15
2022-08-30T16:51:51.519Z,24.15
2022-08-30T16:54:21.311Z,24.10
2022-08-30T16:56:49.089Z,24.06
2022-08-30T16:59:17.509Z,24.07
2022-08-30T17:01:46.555Z,24.08
2022-08-30T17:04:19.452Z,24.07
2022-08-30T17:06:50.859Z,24.09
2022-08-30T17:09:23.615Z,24.09
2022-08-30T17:11:54.418Z,24.11
2022-08-30T17:14:27.886Z,24.11
2022-08-30T17:17:00.342Z,24.13
2022-08-30T17:19:35.680Z,24.15
2022-08-30T17:22:07.199Z,24.18
2022-08-30T17:24:44.219Z,24.21
2022-08-30T17:27:16.989Z,24.25
2022-08-30T17:29:46.314Z,24.28
2022-08-30T17:32:14.277Z,24.32
2022-08-30T17:34:42.048Z,24.37
2022-08-30T17:37:15.849Z,24.38
2022-08-30T17:39:46.770Z,24.42
2022-08-30T17:42:17.064Z,24.43
2022-08-30T17:44:52.219Z,24.45
2022-08-30T17:47:20.654Z,24.48
2022-08-30T17:49:48.433Z,24.49
2022-08-30T17:52:18.243Z,24.50
2022-08-30T17:54:47.469Z,24.52
2022-08-30T17:57:18.199Z,24.53
2022-08-30T17:59:49.257Z,24.53
2022-08-30T18:02:19.022Z,24.53
2022-08-30T18:04:52.974Z,24.54
2022-08-30T18:07:22.038Z,24.55
2022-08-30T18:09:50.183Z,24.56
2022-08-30T18:12:18.428Z,24.56
2022-08-30T18:14:47.279Z,24.56
2022-08-30T18:17:24.667Z,24.57
2022-08-30T18:19:53.913Z,24.56
2022-08-30T18:22:23.974Z,24.57
2022-08-30T18:25:01.680Z,24.58
2022-08-30T18:27:31.775Z,24.57
2022-08-30T18:30:00.968Z,24.57
2022-08-30T18:32:32.731Z,24.58
2022-08-30T18:35:08.873Z,24.57
2022-08-30T18:37:40.523Z,24.57
2022-08-30T18:40:10.689Z,24.57
2022-08-30T18:42:49.779Z,24.56
2022-08-30T18:45:24.900Z,24.56
2022-08-30T18:47:54.086Z,24.56
2022-08-30T18:50:25.263Z,24.55
2022-08-30T18:52:57.072Z,24.55
2022-08-30T18:55:33.204Z,24.53
2022-08-30T18:58:02.478Z,24.53
2022-08-30T19:00:34.159Z,24.54
2022-08-30T19:03:04.375Z,24.53
2022-08-30T19:05:35.330Z,24.54
2022-08-30T19:08:03.620Z,24.54
2022-08-30T19:10:32.958Z,24.55
2022-08-30T19:13:02.851Z,24.54
2022-08-30T19:15:34.104Z,24.56
2022-08-30T19:18:16.763Z,24.55
2022-08-30T19:20:46.920Z,24.54
2022-08-30T19:23:17.975Z,24.54
2022-08-30T19:25:45.696Z,24.51
2022-08-30T19:28:23.021Z,24.52
2022-08-30T19:30:52.299Z,24.50
2022-08-30T19:33:20.196Z,24.50
2022-08-30T19:35:51.089Z,24.50
2022-08-30T19:38:19.112Z,24.51
2022-08-30T19:40:52.382Z,24.49
2022-08-30T19:43:22.197Z,24.51
2022-08-30T19:45:55.625Z,24.51
2022-08-30T19:48:32.015Z,24.51
2022-08-30T19:51:06.891Z,24.49
2022-08-30T19:53:35.890Z,24.50
2022-08-30T19:56:04.103Z,24.50
2022-08-30T19:58:32.845Z,24.50
2022-08-30T20:01:11.743Z,24.50
2022-08-30T20:03:48.612Z,24.49
2022-08-30T20:06:20.479Z,24.48
2022-08-30T20:08:48.293Z,24.49
2022-08-30T20:11:20.046Z,24.48
2022-08-30T20:13:48.587Z,24.48
2022-08-30T20:16:16.735Z,24.47
2022-08-30T20:18:44.891Z,24.47
2022-08-30T20:21:15.334Z,24.46
2022-08-30T20:23:43.733Z,24.44
2022-08-30T20:26:13.017Z,24.46
2022-08-30T20:28:42.555Z,24.47
2022-08-30T20:31:11.779Z,24.46
2022-08-30T20:33:40.088Z,24.47
2022-08-30T20:36:11.312Z,24.45
2022-08-30T20:38:39.738Z,24.45
2022-08-30T20:41:12.650Z,24.46
2022-08-30T20:43:40.438Z,24.45
2022-08-30T20:46:19.930Z,24.43
2022-08-30T20:48:48.222Z,24.44
2022-08-30T20:51:19.905Z,24.43
2022-08-30T20:53:47.333Z,24.43
2022-08-30T20:56:21.657Z,24.43
2022-08-30T20:58:50.509Z,24.42
2022-08-30T21:01:18.641Z,24.42
2022-08-30T21:03:49.331Z,24.41
2022-08-30T21:06:17.449Z,24.41
2022-08-30T21:08:45.429Z,24.41
2022-08-30T21:11:13.081Z,24.40
2022-08-30T21:13:40.745Z,24.40
2022-08-30T21:16:08.602Z,24.40
2022-08-30T21:18:40.657Z,24.39
2022-08-30T21:21:21.555Z,24.38
2022-08-30T21:23:50.532Z,24.38
2022-08-30T21:26:19.525Z,24.37
2022-08-30T21:28:48.460Z,24.37
2022-08-30T21:31:20.644Z,24.37
2022-08-30T21:33:50.465Z,24.38
2022-08-30T21:36:37.737Z,24.36
2022-08-30T21:39:06.578Z,24.35
2022-08-30T21:41:35.527Z,24.34
2022-08-30T21:44:11.966Z,24.33
2022-08-30T21:46:41.005Z,24.31
2022-08-30T21:49:10.694Z,24.31
2022-08-30T21:51:41.656Z,24.32
2022-08-30T21:54:11.037Z,24.33
2022-08-30T21:56:40.924Z,24.32
2022-08-30T21:59:09.747Z,24.31
2022-08-30T22:01:37.953Z,24.29
2022-08-30T22:04:07.525Z,24.28
2022-08-30T22:06:36.866Z,24.25
2022-08-30T22:09:08.899Z,24.26
2022-08-30T22:11:37.200Z,24.26
2022-08-30T22:14:06.068Z,24.26
2022-08-30T22:16:35.086Z,24.25
2022-08-30T22:19:03.685Z,24.27
2022-08-30T22:21:36.094Z,24.27
2022-08-30T22:24:04.769Z,24.27
2022-08-30T22:26:33.438Z,24.28
2022-08-30T22:29:02.202Z,24.27
2022-08-30T22:31:29.927Z,24.26
2022-08-30T22:33:57.758Z,24.22
2022-08-30T22:36:32.366Z,24.20
2022-08-30T22:39:03.157Z,24.19
2022-08-30T22:41:33.992Z,24.15
2022-08-30T22:44:02.757Z,24.13
2022-08-30T22:46:34.193Z,24.08
2022-08-30T22:49:07.989Z,24.07
2022-08-30T22:51:35.595Z,24.08
2022-08-30T22:54:05.741Z,24.07
2022-08-30T22:56:35.454Z,24.05
2022-08-30T22:59:03.685Z,24.05
2022-08-30T23:01:44.800Z,24.04
2022-08-30T23:04:12.996Z,24.04
2022-08-30T23:06:41.013Z,24.06
2022-08-30T23:09:08.537Z,24.06
2022-08-30T23:11:39.065Z,24.07
2022-08-30T23:14:07.734Z,24.08
2022-08-30T23:16:35.543Z,24.08
2022-08-30T23:19:04.875Z,24.09
2022-08-30T23:21:32.586Z,24.08
2022-08-30T23:24:18.601Z,24.09
2022-08-30T23:27:04.736Z,24.09
2022-08-30T23:29:51.975Z,24.10
2022-08-30T23:32:39.733Z,24.09
2022-08-30T23:35:30.514Z,24.11
2022-08-30T23:38:18.073Z,24.11
2022-08-30T23:41:03.925Z,24.11
2022-08-30T23:43:50.517Z,24.10
2022-08-30T23:46:36.561Z,24.10
2022-08-30T23:49:23.117Z,24.09
2022-08-30T23:52:10.045Z,24.09
2022-08-30T23:54:58.549Z,24.08
2022-08-30T23:57:45.275Z,24.06
